createdAt,value
2022-12-03T00:00:13.201Z,-0.43
2022-12-03T00:02:41.688Z,-0.48
2022-12-03T00:05:10.495Z,-0.45
2022-12-03T00:07:38.530Z,-0.45
2022-12-03T00:10:07.946Z,-0.47
2022-12-03T00:12:37.255Z,-0.32
2022-12-03T00:15:05.751Z,-0.29
2022-12-03T00:17:33.732Z,-0.42
2022-12-03T00:20:01.655Z,-0.23
2022-12-03T00:22:29.516Z,-0.24
2022-12-03T00:24:57.383Z,-0.35
2022-12-03T00:27:25.251Z,-0.32
2022-12-03T00:29:54.530Z,-0.36
2022-12-03T00:32:22.407Z,-0.40
2022-12-03T00:34:50.502Z,-0.42
2022-12-03T00:37:18.510Z,-0.32
2022-12-03T00:39:46.408Z,-0.30
2022-12-03T00:42:14.335Z,-0.38
2022-12-03T00:44:42.228Z,-0.42
2022-12-03T00:47:11.554Z,-0.40
2022-12-03T00:49:39.705Z,-0.36
2022-12-03T00:52:07.576Z,-0.34
2022-12-03T00:54:35.668Z,-0.34
2022-12-03T00:57:03.536Z,-0.21
2022-12-03T00:59:31.442Z,-0.13
2022-12-03T01:01:59.444Z,-0.09
2022-12-03T01:04:28.769Z,-0.26
2022-12-03T01:06:56.976Z,-0.37
2022-12-03T01:09:24.967Z,-0.35
2022-12-03T01:11:52.959Z,-0.26
2022-12-03T01:14:21.347Z,-0.35
2022-12-03T01:16:49.485Z,-0.38
2022-12-03T01:19:17.937Z,-0.25
2022-12-03T01:21:49.251Z,-0.37
2022-12-03T01:24:17.572Z,-0.44
2022-12-03T01:26:45.480Z,-0.35
2022-12-03T01:29:13.421Z,-0.41
2022-12-03T01:31:55.217Z,-0.41
2022-12-03T01:34:23.139Z,-0.44
2022-12-03T01:36:52.856Z,-0.42
2022-12-03T01:39:21.278Z,-0.47
2022-12-03T01:41:50.307Z,-0.49
2022-12-03T01:44:20.210Z,-0.47
2022-12-03T01:46:48.611Z,-0.43
2022-12-03T01:49:19.643Z,-0.38
2022-12-03T01:51:48.723Z,-0.41
2022-12-03T01:54:21.078Z,-0.36
2022-12-03T01:56:49.108Z,-0.44
2022-12-03T01:59:18.561Z,-0.45
2022-12-03T02:01:46.791Z,-0.40
2022-12-03T02:04:16.923Z,-0.42
2022-12-03T02:06:45.548Z,-0.46
2022-12-03T02:09:14.136Z,-0.39
2022-12-03T02:11:46.517Z,-0.33
2022-12-03T02:14:18.099Z,-0.30
2022-12-03T02:16:46.187Z,-0.24
2022-12-03T02:19:20.147Z,-0.19
2022-12-03T02:21:53.228Z,-0.22
2022-12-03T02:24:26.227Z,-0.25
2022-12-03T02:26:55.529Z,-0.18
2022-12-03T02:29:23.796Z,-0.27
2022-12-03T02:31:51.863Z,-0.35
2022-12-03T02:34:37.382Z,-0.28
2022-12-03T02:37:05.998Z,-0.24
2022-12-03T02:39:34.777Z,-0.28
2022-12-03T02:42:33.221Z,-0.36
2022-12-03T02:45:05.372Z,-0.25
2022-12-03T02:47:34.791Z,-0.33
2022-12-03T02:50:03.080Z,-0.21
2022-12-03T02:52:31.155Z,-0.21
2022-12-03T02:54:59.248Z,-0.19
2022-12-03T02:57:28.537Z,-0.15
2022-12-03T02:59:56.499Z,-0.24
2022-12-03T03:02:24.599Z,-0.18
2022-12-03T03:04:52.751Z,-0.16
2022-12-03T03:07:20.863Z,0.05
2022-12-03T03:09:48.787Z,-0.09
2022-12-03T03:12:16.739Z,-0.22
2022-12-03T03:14:46.008Z,-0.19
2022-12-03T03:17:13.938Z,-0.19
2022-12-03T03:19:56.882Z,-0.21
2022-12-03T03:22:33.392Z,-0.27
2022-12-03T03:25:01.356Z,-0.18
2022-12-03T03:27:29.652Z,-0.13
2022-12-03T03:29:59.551Z,-0.18
2022-12-03T03:32:27.992Z,-0.19
2022-12-03T03:34:56.328Z,-0.17
2022-12-03T03:37:24.961Z,-0.14
2022-12-03T03:39:53.063Z,-0.08
2022-12-03T03:42:20.964Z,-0.07
2022-12-03T03:44:49.628Z,-0.01
2022-12-03T03:47:19.476Z,-0.02
2022-12-03T03:49:50.668Z,0.05
2022-12-03T03:52:19.389Z,0.13
2022-12-03T03:54:47.600Z,0.21
2022-12-03T03:57:15.588Z,0.11
2022-12-03T03:59:43.574Z,0.30
2022-12-03T04:02:20.854Z,0.40
2022-12-03T04:04:49.174Z,0.29
2022-12-03T04:07:17.539Z,0.11
2022-12-03T04:09:45.779Z,-0.02
2022-12-03T04:12:31.998Z,0.11
2022-12-03T04:15:00.204Z,0.23
2022-12-03T04:17:29.563Z,0.06
2022-12-03T04:19:57.441Z,0.07
2022-12-03T04:22:42.741Z,0.11
2022-12-03T04:25:29.103Z,-0.05
2022-12-03T04:28:14.266Z,-0.13
2022-12-03T04:30:42.265Z,-0.06
2022-12-03T04:33:28.777Z,-0.19
2022-12-03T04:35:56.756Z,-0.08
2022-12-03T04:38:24.743Z,0.07
2022-12-03T04:41:07.857Z,-0.05
2022-12-03T04:43:56.156Z,-0.10
2022-12-03T04:46:24.148Z,-0.15
2022-12-03T04:48:53.434Z,0.00
2022-12-03T04:51:21.332Z,-0.10
2022-12-03T04:53:49.217Z,-0.20
2022-12-03T04:56:17.116Z,-0.05
2022-12-03T04:58:45.083Z,0.03
2022-12-03T05:01:13.130Z,0.01
2022-12-03T05:03:41.068Z,-0.15
2022-12-03T05:06:10.492Z,-0.19
2022-12-03T05:08:38.484Z,-0.17
2022-12-03T05:11:06.577Z,-0.12
2022-12-03T05:13:34.510Z,0.07
2022-12-03T05:16:02.502Z,0.31
2022-12-03T05:18:30.783Z,0.13
2022-12-03T05:20:58.665Z,0.10
2022-12-03T05:23:28.158Z,0.04
2022-12-03T05:25:56.131Z,0.05
2022-12-03T05:28:24.337Z,0.00
2022-12-03T05:30:52.610Z,0.07
2022-12-03T05:33:20.596Z,0.37
2022-12-03T05:35:49.005Z,0.60
2022-12-03T05:38:16.910Z,0.36
2022-12-03T05:40:46.325Z,0.19
2022-12-03T05:43:13.228Z,0.18
2022-12-03T05:45:42.358Z,0.22
2022-12-03T05:48:11.701Z,0.35
2022-12-03T05:50:41.284Z,0.48
2022-12-03T05:53:09.218Z,0.33
2022-12-03T05:55:37.150Z,0.34
2022-12-03T05:58:06.660Z,0.45
2022-12-03T06:00:42.387Z,0.22
2022-12-03T06:03:11.463Z,0.26
2022-12-03T06:05:39.615Z,0.45
2022-12-03T06:08:07.791Z,0.60
2022-12-03T06:10:35.776Z,0.47
2022-12-03T06:13:04.278Z,0.29
2022-12-03T06:15:36.373Z,0.14
2022-12-03T06:18:08.361Z,0.00
2022-12-03T06:20:36.224Z,0.05
2022-12-03T06:23:04.150Z,0.02
2022-12-03T06:25:32.049Z,0.05
2022-12-03T06:27:59.963Z,0.09
2022-12-03T06:30:27.882Z,0.16
2022-12-03T06:32:57.158Z,0.07
2022-12-03T06:35:25.015Z,-0.05
2022-12-03T06:37:52.928Z,-0.02
2022-12-03T06:40:20.798Z,0.00
2022-12-03T06:42:48.671Z,0.00
2022-12-03T06:45:16.727Z,-0.02
2022-12-03T06:47:44.644Z,-0.06
2022-12-03T06:50:14.380Z,-0.22
2022-12-03T06:52:42.257Z,-0.19
2022-12-03T06:55:10.949Z,-0.13
2022-12-03T06:57:38.853Z,-0.11
2022-12-03T07:00:08.863Z,-0.17
2022-12-03T07:02:36.897Z,-0.21
2022-12-03T07:05:05.536Z,-0.22
2022-12-03T07:07:34.838Z,-0.33
2022-12-03T07:10:02.786Z,-0.41
2022-12-03T07:12:30.700Z,-0.43
2022-12-03T07:14:58.623Z,-0.34
2022-12-03T07:17:26.605Z,-0.46
2022-12-03T07:19:54.619Z,-0.18
2022-12-03T07:22:22.521Z,-0.21
2022-12-03T07:24:51.985Z,-0.51
2022-12-03T07:27:20.250Z,-0.53
2022-12-03T07:29:48.188Z,-0.51
2022-12-03T07:32:16.086Z,-0.39
2022-12-03T07:34:43.979Z,-0.21
2022-12-03T07:37:11.931Z,0.08
2022-12-03T07:39:40.334Z,0.11
2022-12-03T07:42:10.350Z,0.15
2022-12-03T07:44:38.272Z,0.24
2022-12-03T07:47:06.297Z,0.34
2022-12-03T07:49:34.279Z,0.41
2022-12-03T07:52:02.148Z,0.17
2022-12-03T07:54:30.063Z,0.05
2022-12-03T07:57:01.412Z,0.29
2022-12-03T07:59:31.357Z,0.10
2022-12-03T08:01:59.356Z,-0.05
2022-12-03T08:04:27.319Z,0.17
2022-12-03T08:06:55.444Z,-0.07
2022-12-03T08:09:23.567Z,-0.09
2022-12-03T08:11:51.532Z,0.10
2022-12-03T08:14:20.750Z,0.21
2022-12-03T08:16:50.180Z,0.25
2022-12-03T08:19:19.198Z,0.14
2022-12-03T08:21:47.189Z,0.21
2022-12-03T08:24:16.570Z,0.30
2022-12-03T08:26:45.384Z,0.47
2022-12-03T08:29:14.639Z,0.88
2022-12-03T08:31:43.401Z,1.02
2022-12-03T08:34:19.707Z,1.07
2022-12-03T08:36:48.406Z,0.98
2022-12-03T08:39:28.245Z,1.23
2022-12-03T08:42:16.653Z,1.19
2022-12-03T08:44:44.558Z,1.23
2022-12-03T08:47:15.867Z,1.38
2022-12-03T08:49:47.199Z,1.39
2022-12-03T08:52:17.575Z,1.38
2022-12-03T08:54:54.194Z,1.50
2022-12-03T08:57:26.048Z,1.53
2022-12-03T08:59:55.745Z,1.62
2022-12-03T09:02:28.397Z,1.80
2022-12-03T09:04:57.636Z,1.86
2022-12-03T09:07:25.535Z,1.99
2022-12-03T09:09:53.589Z,2.02
2022-12-03T09:12:21.644Z,1.94
2022-12-03T09:14:51.998Z,1.94
2022-12-03T09:17:20.184Z,2.01
2022-12-03T09:19:48.113Z,2.16
2022-12-03T09:22:17.462Z,2.21
2022-12-03T09:24:45.841Z,2.28
2022-12-03T09:27:13.744Z,2.31
2022-12-03T09:29:41.685Z,2.54
2022-12-03T09:32:13.650Z,2.70
2022-12-03T09:34:44.620Z,2.78
2022-12-03T09:37:12.526Z,2.75
2022-12-03T09:39:41.759Z,2.87
2022-12-03T09:42:09.875Z,3.05
2022-12-03T09:44:38.719Z,2.98
2022-12-03T09:47:07.232Z,3.01
2022-12-03T09:49:37.217Z,3.43
2022-12-03T09:52:06.422Z,3.75
2022-12-03T09:54:34.429Z,3.82
2022-12-03T09:57:05.289Z,4.02
2022-12-03T09:59:35.058Z,4.01
2022-12-03T10:02:03.485Z,4.29
2022-12-03T10:04:31.688Z,4.43
2022-12-03T10:07:00.285Z,4.47
2022-12-03T10:09:30.009Z,4.61
2022-12-03T10:11:58.603Z,3.92
2022-12-03T10:14:28.895Z,4.16
2022-12-03T10:16:57.004Z,4.47
2022-12-03T10:19:27.594Z,4.80
2022-12-03T10:21:56.084Z,4.67
2022-12-03T10:24:26.876Z,4.62
2022-12-03T10:26:56.363Z,4.69
2022-12-03T10:29:32.965Z,4.61
2022-12-03T10:32:04.536Z,4.74
2022-12-03T10:34:33.945Z,4.76
2022-12-03T10:37:13.128Z,4.61
2022-12-03T10:40:01.325Z,4.73
2022-12-03T10:42:30.485Z,4.77
2022-12-03T10:45:15.852Z,4.58
2022-12-03T10:47:52.426Z,4.26
2022-12-03T10:50:21.258Z,3.81
2022-12-03T10:52:49.153Z,3.66
2022-12-03T10:55:17.430Z,3.76
2022-12-03T10:57:46.415Z,3.96
2022-12-03T11:00:18.352Z,3.93
2022-12-03T11:02:56.171Z,3.87
2022-12-03T11:05:27.878Z,3.43
2022-12-03T11:07:56.381Z,3.56
2022-12-03T11:10:24.679Z,3.76
2022-12-03T11:13:28.573Z,3.76
2022-12-03T11:15:56.902Z,4.19
2022-12-03T11:19:01.278Z,4.49
2022-12-03T11:21:29.759Z,4.54
2022-12-03T11:24:19.723Z,4.61
2022-12-03T11:27:30.528Z,4.57
2022-12-03T11:30:02.448Z,4.53
2022-12-03T11:33:09.612Z,4.24
2022-12-03T11:36:12.941Z,4.58
2022-12-03T11:38:56.709Z,4.67
2022-12-03T11:41:28.292Z,4.58
2022-12-03T11:44:14.868Z,4.80
2022-12-03T11:46:45.231Z,4.66
2022-12-03T11:49:37.759Z,4.61
2022-12-03T11:52:21.579Z,4.11
2022-12-03T11:54:51.927Z,4.26
2022-12-03T11:57:32.265Z,4.40
2022-12-03T12:00:14.274Z,4.11
2022-12-03T12:02:42.304Z,4.11
2022-12-03T12:05:22.527Z,4.15
2022-12-03T12:07:53.756Z,4.12
2022-12-03T12:10:45.967Z,3.75
2022-12-03T12:13:50.472Z,3.85
2022-12-03T12:16:36.823Z,3.66
2022-12-03T12:19:29.260Z,3.48
2022-12-03T12:21:57.727Z,3.43
2022-12-03T12:24:47.149Z,3.64
2022-12-03T12:27:16.243Z,3.83
2022-12-03T12:29:47.247Z,3.97
2022-12-03T12:32:16.880Z,4.19
2022-12-03T12:34:46.476Z,4.18
2022-12-03T12:37:21.029Z,4.37
2022-12-03T12:39:50.380Z,4.39
2022-12-03T12:42:33.963Z,4.56
2022-12-03T12:45:07.336Z,4.69
2022-12-03T12:47:36.034Z,4.39
2022-12-03T12:50:09.923Z,4.41
2022-12-03T12:52:39.610Z,4.21
2022-12-03T12:55:11.199Z,4.13
2022-12-03T12:57:39.468Z,4.31
2022-12-03T13:00:08.889Z,4.51
2022-12-03T13:02:43.626Z,4.18
2022-12-03T13:05:13.868Z,4.42
2022-12-03T13:07:43.051Z,4.27
2022-12-03T13:10:39.727Z,4.44
2022-12-03T13:13:23.280Z,4.24
2022-12-03T13:16:03.767Z,4.11
2022-12-03T13:18:35.122Z,4.03
2022-12-03T13:21:13.701Z,3.78
2022-12-03T13:23:42.024Z,4.10
2022-12-03T13:26:32.865Z,4.01
2022-12-03T13:29:10.113Z,4.13
2022-12-03T13:31:43.525Z,4.12
2022-12-03T13:34:15.846Z,3.92
2022-12-03T13:36:47.481Z,4.05
2022-12-03T13:39:21.125Z,3.89
2022-12-03T13:42:08.039Z,3.77
2022-12-03T13:44:39.159Z,3.71
2022-12-03T13:47:14.737Z,3.68
2022-12-03T13:49:43.002Z,3.63
2022-12-03T13:52:12.860Z,3.51
2022-12-03T13:54:41.141Z,3.50
2022-12-03T13:57:10.504Z,3.56
2022-12-03T13:59:38.388Z,3.52
2022-12-03T14:02:06.362Z,3.45
2022-12-03T14:04:34.951Z,3.30
2022-12-03T14:07:03.071Z,3.33
2022-12-03T14:09:31.027Z,3.46
2022-12-03T14:12:16.181Z,3.31
2022-12-03T14:14:45.864Z,3.32
2022-12-03T14:17:13.817Z,3.42
2022-12-03T14:19:41.789Z,3.52
2022-12-03T14:22:10.090Z,3.33
2022-12-03T14:24:39.825Z,3.36
2022-12-03T14:27:07.749Z,3.24
2022-12-03T14:29:35.710Z,3.26
2022-12-03T14:32:05.001Z,3.27
2022-12-03T14:34:32.972Z,3.09
2022-12-03T14:37:00.884Z,3.02
2022-12-03T14:39:28.827Z,2.91
2022-12-03T14:42:15.071Z,2.85
2022-12-03T14:44:43.852Z,2.75
2022-12-03T14:47:13.690Z,2.64
2022-12-03T14:49:41.926Z,2.54
2022-12-03T14:52:12.445Z,2.54
2022-12-03T14:54:42.338Z,2.41
2022-12-03T14:57:11.395Z,2.21
2022-12-03T14:59:39.409Z,2.15
2022-12-03T15:02:07.851Z,2.09
2022-12-03T15:04:37.265Z,2.09
2022-12-03T15:07:05.517Z,2.06
2022-12-03T15:09:33.575Z,1.95
2022-12-03T15:12:01.497Z,1.79
2022-12-03T15:14:29.387Z,1.71
2022-12-03T15:16:57.424Z,1.69
2022-12-03T15:19:26.608Z,1.80
2022-12-03T15:21:55.855Z,1.78
2022-12-03T15:24:23.764Z,1.87
2022-12-03T15:26:53.365Z,1.84
2022-12-03T15:29:21.829Z,1.68
2022-12-03T15:31:49.907Z,1.73
2022-12-03T15:34:22.592Z,1.83
2022-12-03T15:36:51.228Z,2.10
2022-12-03T15:39:20.497Z,1.87
2022-12-03T15:41:49.673Z,1.92
2022-12-03T15:44:17.548Z,1.88
2022-12-03T15:46:45.498Z,1.79
2022-12-03T15:49:13.463Z,1.73
2022-12-03T15:51:41.335Z,1.54
2022-12-03T15:54:09.216Z,1.42
2022-12-03T15:56:38.468Z,1.40
2022-12-03T15:59:06.349Z,1.30
2022-12-03T16:01:34.318Z,1.28
2022-12-03T16:04:02.244Z,1.23
2022-12-03T16:06:30.223Z,1.22
2022-12-03T16:08:58.109Z,1.30
2022-12-03T16:11:26.022Z,1.39
2022-12-03T16:13:55.405Z,1.52
2022-12-03T16:16:23.361Z,1.56
2022-12-03T16:18:51.348Z,1.49
2022-12-03T16:21:25.009Z,1.44
2022-12-03T16:23:54.514Z,1.40
2022-12-03T16:26:22.395Z,1.30
2022-12-03T16:28:50.307Z,1.41
2022-12-03T16:31:20.147Z,1.68
2022-12-03T16:33:48.426Z,1.32
2022-12-03T16:36:16.423Z,1.12
2022-12-03T16:38:44.363Z,1.04
2022-12-03T16:41:12.314Z,0.93
2022-12-03T16:43:40.195Z,0.92
2022-12-03T16:46:21.405Z,0.90
2022-12-03T16:48:51.237Z,0.90
2022-12-03T16:51:20.302Z,0.89
2022-12-03T16:53:48.597Z,0.80
2022-12-03T16:56:16.618Z,0.90
2022-12-03T16:58:44.818Z,1.13
2022-12-03T17:01:12.967Z,1.19
2022-12-03T17:03:42.206Z,1.14
2022-12-03T17:06:11.576Z,0.94
2022-12-03T17:08:42.014Z,0.87
2022-12-03T17:11:12.428Z,0.80
2022-12-03T17:13:40.429Z,0.64
2022-12-03T17:16:08.415Z,0.41
2022-12-03T17:18:36.352Z,0.36
2022-12-03T17:21:04.396Z,0.43
2022-12-03T17:23:33.671Z,0.44
2022-12-03T17:26:01.544Z,0.40
2022-12-03T17:28:29.448Z,0.26
2022-12-03T17:30:57.386Z,0.20
2022-12-03T17:33:25.309Z,0.10
2022-12-03T17:35:53.280Z,0.13
2022-12-03T17:38:21.180Z,0.17
2022-12-03T17:40:50.439Z,0.10
2022-12-03T17:43:18.379Z,0.00
2022-12-03T17:45:46.338Z,-0.04
2022-12-03T17:48:14.240Z,-0.13
2022-12-03T17:50:42.183Z,-0.05
2022-12-03T17:53:10.536Z,-0.02
2022-12-03T17:55:44.627Z,-0.02
2022-12-03T17:58:14.687Z,-0.22
2022-12-03T18:00:42.660Z,-0.13
2022-12-03T18:03:10.661Z,-0.30
2022-12-03T18:05:38.702Z,-0.27
2022-12-03T18:08:07.478Z,-0.18
2022-12-03T18:10:35.929Z,-0.37
2022-12-03T18:13:03.847Z,-0.37
2022-12-03T18:15:33.464Z,-0.30
2022-12-03T18:18:01.366Z,-0.59
2022-12-03T18:20:29.361Z,-0.66
2022-12-03T18:22:58.914Z,-0.66
2022-12-03T18:25:28.048Z,-0.67
2022-12-03T18:27:55.952Z,-0.72
2022-12-03T18:30:23.893Z,-0.69
2022-12-03T18:32:53.177Z,-0.80
2022-12-03T18:35:21.099Z,-0.79
2022-12-03T18:37:50.807Z,-0.88
2022-12-03T18:40:20.124Z,-0.86
2022-12-03T18:42:48.158Z,-0.88
2022-12-03T18:45:16.558Z,-0.77
2022-12-03T18:47:44.653Z,-0.86
2022-12-03T18:50:14.757Z,-0.93
2022-12-03T18:52:42.723Z,-0.89
2022-12-03T18:55:15.079Z,-0.84
2022-12-03T18:57:42.960Z,-0.96
2022-12-03T19:00:13.888Z,-0.80
2022-12-03T19:05:31.736Z,-0.91
2022-12-03T19:07:59.780Z,-1.03
2022-12-03T19:10:28.067Z,-1.08
2022-12-03T19:12:55.931Z,-1.12
2022-12-03T19:15:24.186Z,-1.10
2022-12-03T19:17:52.338Z,-1.13
2022-12-03T19:20:20.456Z,-1.08
2022-12-03T19:22:49.713Z,-1.17
2022-12-03T19:25:17.678Z,-1.20
2022-12-03T19:27:45.545Z,-1.11
2022-12-03T19:30:14.253Z,-0.97
2022-12-03T19:32:42.214Z,-0.91
2022-12-03T19:35:11.401Z,-0.98
2022-12-03T19:37:39.472Z,-1.11
2022-12-03T19:40:11.355Z,-0.96
2022-12-03T19:42:39.818Z,-1.14
2022-12-03T19:45:08.603Z,-1.01
2022-12-03T19:47:36.652Z,-1.08
2022-12-03T19:50:05.234Z,-0.96
2022-12-03T19:52:36.309Z,-1.19
2022-12-03T19:55:05.151Z,-1.17
2022-12-03T19:57:34.415Z,-1.29
2022-12-03T20:00:02.336Z,-1.14
2022-12-03T20:02:30.390Z,-1.24
2022-12-03T20:04:58.332Z,-1.21
2022-12-03T20:07:26.300Z,-1.07
2022-12-03T20:09:54.502Z,-0.83
2022-12-03T20:12:22.614Z,-1.02
2022-12-03T20:14:51.892Z,-1.17
2022-12-03T20:17:19.778Z,-1.11
2022-12-03T20:19:47.915Z,-1.25
2022-12-03T20:22:15.820Z,-1.27
2022-12-03T20:24:43.756Z,-1.38
2022-12-03T20:27:11.628Z,-1.42
2022-12-03T20:29:39.564Z,-1.06
2022-12-03T20:32:08.978Z,-1.23
2022-12-03T20:34:36.997Z,-1.20
2022-12-03T20:37:05.052Z,-0.84
2022-12-03T20:39:33.046Z,-0.99
2022-12-03T20:42:01.008Z,-0.95
2022-12-03T20:44:28.929Z,-1.21
2022-12-03T20:46:56.904Z,-1.16
2022-12-03T20:49:26.142Z,-1.09
2022-12-03T20:51:54.030Z,-1.25
2022-12-03T20:54:22.059Z,-1.11
2022-12-03T20:56:50.148Z,-0.88
2022-12-03T20:59:18.503Z,-1.04
2022-12-03T21:01:46.723Z,-0.83
2022-12-03T21:04:16.108Z,-0.77
2022-12-03T21:06:46.196Z,-0.99
2022-12-03T21:09:14.473Z,-1.07
2022-12-03T21:11:44.563Z,-1.24
2022-12-03T21:14:12.808Z,-1.23
2022-12-03T21:19:30.200Z,-1.15
2022-12-03T21:21:59.480Z,-1.24
2022-12-03T21:24:27.394Z,-1.07
2022-12-03T21:26:55.330Z,-1.19
2022-12-03T21:29:23.497Z,-1.25
2022-12-03T21:31:51.454Z,-1.26
2022-12-03T21:34:19.343Z,-1.28
2022-12-03T21:36:47.229Z,-1.35
2022-12-03T21:39:16.499Z,-1.31
2022-12-03T21:42:34.749Z,-1.02
2022-12-03T21:44:32.564Z,-1.32
2022-12-03T21:47:12.137Z,-1.33
2022-12-03T21:49:42.012Z,-1.42
2022-12-03T21:52:10.369Z,-1.56
2022-12-03T21:54:39.628Z,-1.52
2022-12-03T21:57:07.549Z,-1.57
2022-12-03T21:59:35.496Z,-1.48
2022-12-03T22:02:03.709Z,-1.64
2022-12-03T22:04:31.719Z,-1.52
2022-12-03T22:06:59.616Z,-1.65
2022-12-03T22:09:27.646Z,-1.59
2022-12-03T22:11:59.291Z,-1.47
2022-12-03T22:14:27.368Z,-1.26
2022-12-03T22:16:55.302Z,-1.47
2022-12-03T22:19:23.677Z,-1.45
2022-12-03T22:21:51.590Z,-1.44
2022-12-03T22:24:19.737Z,-1.56
2022-12-03T22:26:48.136Z,-1.62
2022-12-03T22:29:17.487Z,-1.52
2022-12-03T22:31:45.519Z,-1.49
2022-12-03T22:34:13.492Z,-1.35
2022-12-03T22:36:41.488Z,-1.42
2022-12-03T22:39:09.413Z,-1.39
2022-12-03T22:41:37.335Z,-1.35
2022-12-03T22:44:05.324Z,-1.41
2022-12-03T22:46:34.735Z,-1.41
2022-12-03T22:49:07.057Z,-1.31
2022-12-03T22:51:36.260Z,-1.33
2022-12-03T22:54:04.356Z,-0.95
2022-12-03T22:56:32.837Z,-1.09
2022-12-03T22:59:00.810Z,-1.22
2022-12-03T23:01:30.688Z,-1.32
2022-12-03T23:04:00.596Z,-1.27
2022-12-03T23:06:29.308Z,-1.29
2022-12-03T23:08:58.134Z,-1.38
2022-12-03T23:11:26.179Z,-1.40
2022-12-03T23:13:54.413Z,-1.42
2022-12-03T23:16:24.592Z,-1.24
2022-12-03T23:18:52.543Z,-1.20
2022-12-03T23:21:28.967Z,-1.14
2022-12-03T23:23:57.779Z,-1.08
2022-12-03T23:26:25.831Z,-1.26
2022-12-03T23:28:53.729Z,-1.02
2022-12-03T23:31:23.507Z,-0.78
2022-12-03T23:33:52.153Z,-0.84
2022-12-03T23:36:22.195Z,-0.88
2022-12-03T23:38:50.413Z,-0.99
2022-12-03T23:41:20.417Z,-0.87
2022-12-03T23:43:48.785Z,-0.76
2022-12-03T23:46:18.577Z,-0.63
2022-12-03T23:48:46.959Z,-0.55
2022-12-03T23:51:17.409Z,-0.57
2022-12-03T23:53:46.741Z,-0.64
2022-12-03T23:56:16.320Z,-0.68
2022-12-03T23:58:44.251Z,-0.32
